Brandon, SD

7:21 PM CST on January 31, 2015 (GMT -0600)
East Sioux Falls | Change Station
CLOSE
Current Station
Personal Weather Station
Location: Sioux Falls, SD
Elevation: 1473 ft
Nearby Weather Stations
Active Advisory: Winter Storm Warning Active Notice: Local Storm Report

Elev 1473 ft 43.55 °N, 96.66 °W | Updated 19 seconds ago

Snow
Snow
25.3 °F
Feels Like 19 °F
N
5.1
Wind Variable Wind from ENE
Gusts 7.4 mph

Today
High -- | Low -- °F
--% Chance of Precip.
Yesterday
High -- | Low -- °F
Precip. -- in
7:43 AM 5:36 PM
Waxing Gibbous, 92% visible
Pressure 30.12 in
Visibility 0.8 miles
Clouds
Windchill 19 °F
Dew Point 20 °F
Humidity 81%
Rainfall 0.00 in
Snow Depth Not available.
UV 0.0 out of 12
Pollen .10 out of 12
Air Quality Not available.
Flu Activity Not available.
METAR KFSD 010056Z 05016KT 3/4SM R03/5500V6000FT -SN BR VV011 M04/M05 A3005 RMK AO2 TWR VIS 1 SLP197 P0006 T10391050 $

More Conditions Fewer Conditions

Pressure 30.12 in
Visibility 0.8 miles
Clouds
Windchill 19 °F
Dew Point 20 °F
Humidity 81%
Rainfall 0.00 in
Snow Depth Not available.
UV 0.0 out of 12
Pollen .10 out of 12
Air Quality Not available.
Flu Activity Not available.
METAR KFSD 010056Z 05016KT 3/4SM R03/5500V6000FT -SN BR VV011 M04/M05 A3005 RMK AO2 TWR VIS 1 SLP197 P0006 T10391050 $

More Conditions Fewer Conditions

10-Day Weather Forecast

Almanac

Astronomy

Jan. 31, 2015 Rise Set
Actual Time
Civil Twilight
Nautical Twilight
Astronomical Twilight
Moon
Length of Visible Light
Length of Day
Tomorrow will be .
, % of the Moon is Illuminated

Today's Extremes

State Highs State Lows

Community

WunderPhotos

Upload Photos

1,792,273 photos uploaded!

WunderBlogs® & News

Nearby

Air Quality

  Air Quality AQ Index Pollutant
Not available.

Snow Depth

Station Depth Elevation

Earthquake Activity

City Distance Mag. Time & Date
Minimum magnitude displayed is 2.5.

Coastal Water Temperatures

Place Temperature

Nearby Weather Stations